sensor_id;sensor_type;location;lat;lon;timestamp;P1;durP1;ratioP1;P2;durP2;ratioP2
6434;SDS011;3250;42.694;23.278;2022-10-18T00:02:12;45.53;;;20.03;;
6434;SDS011;3250;42.694;23.278;2022-10-18T00:04:38;33.90;;;16.23;;
6434;SDS011;3250;42.694;23.278;2022-10-18T00:07:03;31.83;;;16.27;;
6434;SDS011;3250;42.694;23.278;2022-10-18T00:09:29;34.63;;;17.20;;
6434;SDS011;3250;42.694;23.278;2022-10-18T00:11:54;27.13;;;14.87;;
6434;SDS011;3250;42.694;23.278;2022-10-18T00:14:20;31.37;;;14.30;;
6434;SDS011;3250;42.694;23.278;2022-10-18T00:16:46;25.30;;;13.67;;
6434;SDS011;3250;42.694;23.278;2022-10-18T00:19:11;27.70;;;13.83;;
6434;SDS011;3250;42.694;23.278;2022-10-18T00:21:37;24.87;;;12.63;;
6434;SDS011;3250;42.694;23.278;2022-10-18T00:24:02;24.93;;;11.93;;
6434;SDS011;3250;42.694;23.278;2022-10-18T00:26:28;20.70;;;11.87;;
6434;SDS011;3250;42.694;23.278;2022-10-18T00:28:58;16.90;;;10.73;;
6434;SDS011;3250;42.694;23.278;2022-10-18T00:31:29;25.27;;;11.30;;
6434;SDS011;3250;42.694;23.278;2022-10-18T00:33:59;18.53;;;11.10;;
6434;SDS011;3250;42.694;23.278;2022-10-18T00:36:27;19.23;;;10.40;;
6434;SDS011;3250;42.694;23.278;2022-10-18T00:38:54;19.60;;;11.30;;
6434;SDS011;3250;42.694;23.278;2022-10-18T00:41:21;20.63;;;11.00;;
6434;SDS011;3250;42.694;23.278;2022-10-18T00:43:53;16.53;;;10.33;;
6434;SDS011;3250;42.694;23.278;2022-10-18T00:46:22;18.67;;;9.77;;
6434;SDS011;3250;42.694;23.278;2022-10-18T00:48:48;17.30;;;10.07;;
6434;SDS011;3250;42.694;23.278;2022-10-18T00:51:15;16.10;;;9.40;;
6434;SDS011;3250;42.694;23.278;2022-10-18T00:53:43;15.73;;;9.57;;
6434;SDS011;3250;42.694;23.278;2022-10-18T00:56:09;14.70;;;8.97;;
6434;SDS011;3250;42.694;23.278;2022-10-18T00:58:35;18.23;;;9.57;;
6434;SDS011;3250;42.694;23.278;2022-10-18T01:01:00;20.70;;;10.97;;
6434;SDS011;3250;42.694;23.278;2022-10-18T01:03:26;14.60;;;9.23;;
6434;SDS011;3250;42.694;23.278;2022-10-18T01:05:51;14.83;;;8.93;;
6434;SDS011;3250;42.694;23.278;2022-10-18T01:14:02;15.07;;;7.67;;
6434;SDS011;3250;42.694;23.278;2022-10-18T01:16:52;14.10;;;8.47;;
6434;SDS011;3250;42.694;23.278;2022-10-18T01:28:08;12.50;;;6.67;;
6434;SDS011;3250;42.694;23.278;2022-10-18T01:36:02;14.73;;;6.73;;
6434;SDS011;3250;42.694;23.278;2022-10-18T01:38:36;10.47;;;6.43;;
6434;SDS011;3250;42.694;23.278;2022-10-18T01:41:03;9.20;;;6.30;;
6434;SDS011;3250;42.694;23.278;2022-10-18T01:43:31;10.53;;;5.90;;
6434;SDS011;3250;42.694;23.278;2022-10-18T01:45:59;10.57;;;6.37;;
6434;SDS011;3250;42.694;23.278;2022-10-18T01:48:26;9.83;;;6.20;;
6434;SDS011;3250;42.694;23.278;2022-10-18T01:50:51;11.57;;;6.07;;
6434;SDS011;3250;42.694;23.278;2022-10-18T01:56:04;18.13;;;7.47;;
6434;SDS011;3250;42.694;23.278;2022-10-18T01:58:55;14.70;;;8.93;;
6434;SDS011;3250;42.694;23.278;2022-10-18T02:04:21;19.43;;;8.57;;
6434;SDS011;3250;42.694;23.278;2022-10-18T02:06:48;16.17;;;8.83;;
6434;SDS011;3250;42.694;23.278;2022-10-18T02:09:24;11.80;;;7.73;;
6434;SDS011;3250;42.694;23.278;2022-10-18T02:11:57;15.80;;;8.07;;
6434;SDS011;3250;42.694;23.278;2022-10-18T02:14:25;13.33;;;8.00;;
6434;SDS011;3250;42.694;23.278;2022-10-18T02:16:52;17.00;;;8.37;;
6434;SDS011;3250;42.694;23.278;2022-10-18T02:21:52;18.17;;;8.40;;
6434;SDS011;3250;42.694;23.278;2022-10-18T02:24:20;14.80;;;7.60;;
6434;SDS011;3250;42.694;23.278;2022-10-18T02:26:48;15.70;;;6.70;;
6434;SDS011;3250;42.694;23.278;2022-10-18T02:29:14;10.33;;;6.67;;
6434;SDS011;3250;42.694;23.278;2022-10-18T02:31:44;17.80;;;7.17;;
6434;SDS011;3250;42.694;23.278;2022-10-18T02:34:16;12.13;;;7.53;;
6434;SDS011;3250;42.694;23.278;2022-10-18T02:39:19;14.30;;;7.07;;
6434;SDS011;3250;42.694;23.278;2022-10-18T02:41:48;11.97;;;6.37;;
6434;SDS011;3250;42.694;23.278;2022-10-18T02:44:14;11.67;;;7.20;;
6434;SDS011;3250;42.694;23.278;2022-10-18T02:46:39;11.63;;;6.57;;
6434;SDS011;3250;42.694;23.278;2022-10-18T02:49:05;13.63;;;7.10;;
6434;SDS011;3250;42.694;23.278;2022-10-18T02:51:31;12.03;;;7.17;;
6434;SDS011;3250;42.694;23.278;2022-10-18T02:53:56;10.57;;;6.50;;
6434;SDS011;3250;42.694;23.278;2022-10-18T02:56:22;13.80;;;8.30;;
6434;SDS011;3250;42.694;23.278;2022-10-18T02:58:47;14.00;;;8.20;;
6434;SDS011;3250;42.694;23.278;2022-10-18T03:01:13;12.10;;;7.53;;
6434;SDS011;3250;42.694;23.278;2022-10-18T03:03:38;18.03;;;8.23;;
6434;SDS011;3250;42.694;23.278;2022-10-18T03:06:04;13.67;;;8.13;;
6434;SDS011;3250;42.694;23.278;2022-10-18T03:08:29;16.53;;;9.23;;
6434;SDS011;3250;42.694;23.278;2022-10-18T03:10:54;17.27;;;9.20;;
6434;SDS011;3250;42.694;23.278;2022-10-18T03:13:20;18.63;;;9.53;;
6434;SDS011;3250;42.694;23.278;2022-10-18T03:15:46;16.73;;;9.47;;
6434;SDS011;3250;42.694;23.278;2022-10-18T03:18:12;15.00;;;9.03;;
6434;SDS011;3250;42.694;23.278;2022-10-18T03:20:37;19.00;;;9.70;;
6434;SDS011;3250;42.694;23.278;2022-10-18T03:23:04;22.87;;;10.53;;
6434;SDS011;3250;42.694;23.278;2022-10-18T03:25:31;19.03;;;12.20;;
6434;SDS011;3250;42.694;23.278;2022-10-18T03:27:56;26.10;;;12.50;;
6434;SDS011;3250;42.694;23.278;2022-10-18T03:30:22;23.43;;;13.40;;
6434;SDS011;3250;42.694;23.278;2022-10-18T03:32:47;23.07;;;12.27;;
6434;SDS011;3250;42.694;23.278;2022-10-18T03:35:12;19.37;;;11.47;;
6434;SDS011;3250;42.694;23.278;2022-10-18T03:37:38;21.03;;;11.43;;
6434;SDS011;3250;42.694;23.278;2022-10-18T03:40:03;24.70;;;11.77;;
6434;SDS011;3250;42.694;23.278;2022-10-18T03:42:29;23.73;;;11.70;;
6434;SDS011;3250;42.694;23.278;2022-10-18T03:44:55;20.20;;;11.00;;
6434;SDS011;3250;42.694;23.278;2022-10-18T03:47:20;22.57;;;12.53;;
6434;SDS011;3250;42.694;23.278;2022-10-18T03:49:45;28.97;;;14.03;;
6434;SDS011;3250;42.694;23.278;2022-10-18T03:52:11;32.03;;;16.13;;
6434;SDS011;3250;42.694;23.278;2022-10-18T03:54:36;25.40;;;12.50;;
6434;SDS011;3250;42.694;23.278;2022-10-18T03:57:02;28.43;;;12.57;;
6434;SDS011;3250;42.694;23.278;2022-10-18T03:59:27;27.40;;;12.67;;
6434;SDS011;3250;42.694;23.278;2022-10-18T04:01:52;26.00;;;13.53;;
6434;SDS011;3250;42.694;23.278;2022-10-18T04:04:18;22.77;;;13.67;;
6434;SDS011;3250;42.694;23.278;2022-10-18T04:06:43;30.93;;;14.20;;
6434;SDS011;3250;42.694;23.278;2022-10-18T04:09:09;28.60;;;15.30;;
6434;SDS011;3250;42.694;23.278;2022-10-18T04:11:34;35.07;;;15.17;;
6434;SDS011;3250;42.694;23.278;2022-10-18T04:14:00;31.10;;;15.20;;
6434;SDS011;3250;42.694;23.278;2022-10-18T04:16:25;32.43;;;14.93;;
6434;SDS011;3250;42.694;23.278;2022-10-18T04:18:51;27.83;;;15.30;;
6434;SDS011;3250;42.694;23.278;2022-10-18T04:21:16;26.73;;;15.47;;
6434;SDS011;3250;42.694;23.278;2022-10-18T04:23:42;30.63;;;15.70;;
6434;SDS011;3250;42.694;23.278;2022-10-18T04:26:07;47.33;;;22.17;;
6434;SDS011;3250;42.694;23.278;2022-10-18T04:28:33;42.83;;;18.97;;
6434;SDS011;3250;42.694;23.278;2022-10-18T04:30:59;44.67;;;23.70;;
6434;SDS011;3250;42.694;23.278;2022-10-18T04:33:24;58.47;;;25.23;;
6434;SDS011;3250;42.694;23.278;2022-10-18T04:35:50;44.00;;;23.53;;
6434;SDS011;3250;42.694;23.278;2022-10-18T04:38:17;45.50;;;23.50;;
6434;SDS011;3250;42.694;23.278;2022-10-18T04:40:43;51.37;;;23.77;;
6434;SDS011;3250;42.694;23.278;2022-10-18T04:43:09;48.30;;;22.90;;
6434;SDS011;3250;42.694;23.278;2022-10-18T04:45:34;54.13;;;25.20;;
6434;SDS011;3250;42.694;23.278;2022-10-18T04:48:00;62.40;;;24.17;;
6434;SDS011;3250;42.694;23.278;2022-10-18T04:50:25;56.23;;;26.33;;
6434;SDS011;3250;42.694;23.278;2022-10-18T04:52:50;52.17;;;25.07;;
6434;SDS011;3250;42.694;23.278;2022-10-18T04:55:17;60.73;;;27.13;;
6434;SDS011;3250;42.694;23.278;2022-10-18T04:57:43;68.07;;;28.33;;
6434;SDS011;3250;42.694;23.278;2022-10-18T05:00:08;64.70;;;28.97;;
6434;SDS011;3250;42.694;23.278;2022-10-18T05:02:34;86.80;;;32.30;;
6434;SDS011;3250;42.694;23.278;2022-10-18T05:04:59;69.27;;;32.73;;
6434;SDS011;3250;42.694;23.278;2022-10-18T05:07:25;74.00;;;33.83;;
6434;SDS011;3250;42.694;23.278;2022-10-18T05:09:50;74.00;;;36.77;;
6434;SDS011;3250;42.694;23.278;2022-10-18T05:12:15;73.47;;;35.00;;
6434;SDS011;3250;42.694;23.278;2022-10-18T05:14:41;77.67;;;36.60;;
6434;SDS011;3250;42.694;23.278;2022-10-18T05:17:06;85.73;;;38.77;;
6434;SDS011;3250;42.694;23.278;2022-10-18T05:19:32;92.87;;;41.47;;
6434;SDS011;3250;42.694;23.278;2022-10-18T05:21:57;79.13;;;39.20;;
6434;SDS011;3250;42.694;23.278;2022-10-18T05:24:23;81.50;;;39.03;;
6434;SDS011;3250;42.694;23.278;2022-10-18T05:26:48;93.07;;;44.63;;
6434;SDS011;3250;42.694;23.278;2022-10-18T05:29:13;94.60;;;46.40;;
6434;SDS011;3250;42.694;23.278;2022-10-18T05:34:18;95.93;;;43.87;;
6434;SDS011;3250;42.694;23.278;2022-10-18T05:36:45;73.80;;;35.90;;
6434;SDS011;3250;42.694;23.278;2022-10-18T05:39:11;83.93;;;39.57;;
6434;SDS011;3250;42.694;23.278;2022-10-18T05:41:36;85.27;;;39.83;;
6434;SDS011;3250;42.694;23.278;2022-10-18T05:44:02;74.03;;;35.50;;
6434;SDS011;3250;42.694;23.278;2022-10-18T05:46:29;65.20;;;29.73;;
6434;SDS011;3250;42.694;23.278;2022-10-18T05:48:54;40.50;;;22.50;;
6434;SDS011;3250;42.694;23.278;2022-10-18T05:51:20;33.73;;;17.80;;
6434;SDS011;3250;42.694;23.278;2022-10-18T05:53:45;30.53;;;16.20;;
6434;SDS011;3250;42.694;23.278;2022-10-18T05:56:11;39.90;;;15.40;;
6434;SDS011;3250;42.694;23.278;2022-10-18T05:58:37;15.20;;;8.10;;
6434;SDS011;3250;42.694;23.278;2022-10-18T06:01:03;18.57;;;7.60;;
6434;SDS011;3250;42.694;23.278;2022-10-18T06:03:29;12.83;;;6.17;;
6434;SDS011;3250;42.694;23.278;2022-10-18T06:06:02;10.97;;;6.20;;
6434;SDS011;3250;42.694;23.278;2022-10-18T06:08:33;11.23;;;6.30;;
6434;SDS011;3250;42.694;23.278;2022-10-18T06:10:59;14.73;;;7.07;;
6434;SDS011;3250;42.694;23.278;2022-10-18T06:13:29;13.07;;;6.43;;
6434;SDS011;3250;42.694;23.278;2022-10-18T06:15:55;9.07;;;6.40;;
6434;SDS011;3250;42.694;23.278;2022-10-18T06:18:21;14.83;;;7.23;;
6434;SDS011;3250;42.694;23.278;2022-10-18T06:20:47;16.60;;;7.80;;
6434;SDS011;3250;42.694;23.278;2022-10-18T06:23:12;15.83;;;7.47;;
6434;SDS011;3250;42.694;23.278;2022-10-18T06:25:38;20.77;;;7.77;;
6434;SDS011;3250;42.694;23.278;2022-10-18T06:28:04;17.33;;;7.77;;
6434;SDS011;3250;42.694;23.278;2022-10-18T06:30:30;18.80;;;7.83;;
6434;SDS011;3250;42.694;23.278;2022-10-18T06:32:58;17.27;;;8.07;;
6434;SDS011;3250;42.694;23.278;2022-10-18T06:35:24;17.40;;;10.33;;
6434;SDS011;3250;42.694;23.278;2022-10-18T06:37:50;21.57;;;9.93;;
6434;SDS011;3250;42.694;23.278;2022-10-18T06:40:15;17.17;;;9.17;;
6434;SDS011;3250;42.694;23.278;2022-10-18T06:42:41;15.00;;;9.23;;
6434;SDS011;3250;42.694;23.278;2022-10-18T06:45:06;20.23;;;10.30;;
6434;SDS011;3250;42.694;23.278;2022-10-18T06:47:32;14.77;;;10.23;;
6434;SDS011;3250;42.694;23.278;2022-10-18T06:49:58;22.47;;;10.97;;
6434;SDS011;3250;42.694;23.278;2022-10-18T06:52:23;20.70;;;10.93;;
6434;SDS011;3250;42.694;23.278;2022-10-18T06:54:50;20.20;;;11.10;;
6434;SDS011;3250;42.694;23.278;2022-10-18T06:57:16;18.00;;;9.53;;
6434;SDS011;3250;42.694;23.278;2022-10-18T06:59:41;23.43;;;11.03;;
6434;SDS011;3250;42.694;23.278;2022-10-18T07:02:08;18.97;;;8.93;;
6434;SDS011;3250;42.694;23.278;2022-10-18T07:04:38;20.87;;;10.10;;
6434;SDS011;3250;42.694;23.278;2022-10-18T07:07:03;15.60;;;9.10;;
6434;SDS011;3250;42.694;23.278;2022-10-18T07:09:29;18.45;;;9.38;;
6434;SDS011;3250;42.694;23.278;2022-10-18T07:11:54;17.48;;;9.90;;
6434;SDS011;3250;42.694;23.278;2022-10-18T07:14:20;23.45;;;10.35;;
6434;SDS011;3250;42.694;23.278;2022-10-18T07:16:45;23.27;;;11.27;;
6434;SDS011;3250;42.694;23.278;2022-10-18T07:19:11;19.60;;;9.88;;
6434;SDS011;3250;42.694;23.278;2022-10-18T07:21:36;23.95;;;11.60;;
6434;SDS011;3250;42.694;23.278;2022-10-18T07:24:02;19.58;;;11.75;;
6434;SDS011;3250;42.694;23.278;2022-10-18T07:26:28;24.50;;;11.48;;
6434;SDS011;3250;42.694;23.278;2022-10-18T07:28:56;21.42;;;9.30;;
6434;SDS011;3250;42.694;23.278;2022-10-18T07:31:33;21.30;;;8.38;;
6434;SDS011;3250;42.694;23.278;2022-10-18T07:33:59;19.45;;;8.85;;
6434;SDS011;3250;42.694;23.278;2022-10-18T07:36:25;15.77;;;9.25;;
6434;SDS011;3250;42.694;23.278;2022-10-18T07:38:51;18.33;;;10.05;;
6434;SDS011;3250;42.694;23.278;2022-10-18T07:41:17;18.00;;;9.20;;
6434;SDS011;3250;42.694;23.278;2022-10-18T07:43:43;22.83;;;10.68;;
6434;SDS011;3250;42.694;23.278;2022-10-18T07:46:11;15.95;;;8.68;;
6434;SDS011;3250;42.694;23.278;2022-10-18T07:48:37;18.10;;;9.30;;
6434;SDS011;3250;42.694;23.278;2022-10-18T07:51:03;22.50;;;9.90;;
6434;SDS011;3250;42.694;23.278;2022-10-18T07:53:29;16.02;;;9.18;;
6434;SDS011;3250;42.694;23.278;2022-10-18T07:55:58;21.50;;;10.13;;
6434;SDS011;3250;42.694;23.278;2022-10-18T07:58:24;18.58;;;9.88;;
6434;SDS011;3250;42.694;23.278;2022-10-18T08:00:50;21.35;;;8.95;;
6434;SDS011;3250;42.694;23.278;2022-10-18T08:03:15;23.00;;;9.40;;
6434;SDS011;3250;42.694;23.278;2022-10-18T08:05:40;16.08;;;10.27;;
6434;SDS011;3250;42.694;23.278;2022-10-18T08:08:06;20.75;;;9.90;;
6434;SDS011;3250;42.694;23.278;2022-10-18T08:10:32;17.40;;;8.93;;
6434;SDS011;3250;42.694;23.278;2022-10-18T08:12:58;20.25;;;8.88;;
6434;SDS011;3250;42.694;23.278;2022-10-18T08:15:24;20.15;;;10.90;;
6434;SDS011;3250;42.694;23.278;2022-10-18T08:17:49;24.10;;;10.05;;
6434;SDS011;3250;42.694;23.278;2022-10-18T08:20:15;15.77;;;8.90;;
6434;SDS011;3250;42.694;23.278;2022-10-18T08:22:41;23.88;;;10.35;;
6434;SDS011;3250;42.694;23.278;2022-10-18T08:25:06;22.23;;;9.35;;
6434;SDS011;3250;42.694;23.278;2022-10-18T08:27:32;16.73;;;9.10;;
6434;SDS011;3250;42.694;23.278;2022-10-18T08:29:58;23.30;;;10.45;;
6434;SDS011;3250;42.694;23.278;2022-10-18T08:32:25;18.80;;;10.20;;
6434;SDS011;3250;42.694;23.278;2022-10-18T08:34:52;15.75;;;9.43;;
6434;SDS011;3250;42.694;23.278;2022-10-18T08:37:17;23.10;;;9.77;;
6434;SDS011;3250;42.694;23.278;2022-10-18T08:39:43;15.05;;;9.38;;
6434;SDS011;3250;42.694;23.278;2022-10-18T08:44:49;17.67;;;10.07;;
6434;SDS011;3250;42.694;23.278;2022-10-18T08:49:48;21.60;;;10.38;;
6434;SDS011;3250;42.694;23.278;2022-10-18T08:52:30;17.02;;;10.25;;
6434;SDS011;3250;42.694;23.278;2022-10-18T08:58:01;13.98;;;8.95;;
6434;SDS011;3250;42.694;23.278;2022-10-18T09:00:30;18.38;;;9.32;;
6434;SDS011;3250;42.694;23.278;2022-10-18T09:03:16;20.30;;;9.98;;
6434;SDS011;3250;42.694;23.278;2022-10-18T09:05:54;18.33;;;9.70;;
6434;SDS011;3250;42.694;23.278;2022-10-18T09:14:46;16.85;;;10.30;;
6434;SDS011;3250;42.694;23.278;2022-10-18T09:17:27;17.60;;;10.27;;
6434;SDS011;3250;42.694;23.278;2022-10-18T09:25:19;27.23;;;10.15;;
6434;SDS011;3250;42.694;23.278;2022-10-18T09:27:50;23.95;;;10.20;;
6434;SDS011;3250;42.694;23.278;2022-10-18T09:30:39;22.05;;;9.77;;
6434;SDS011;3250;42.694;23.278;2022-10-18T09:35:51;20.75;;;9.57;;
6434;SDS011;3250;42.694;23.278;2022-10-18T09:38:22;17.30;;;9.18;;
6434;SDS011;3250;42.694;23.278;2022-10-18T09:41:01;18.42;;;9.40;;
6434;SDS011;3250;42.694;23.278;2022-10-18T09:43:41;15.73;;;8.55;;
6434;SDS011;3250;42.694;23.278;2022-10-18T09:46:09;13.85;;;8.80;;
6434;SDS011;3250;42.694;23.278;2022-10-18T09:48:40;16.67;;;9.57;;
6434;SDS011;3250;42.694;23.278;2022-10-18T09:51:23;19.95;;;9.40;;
6434;SDS011;3250;42.694;23.278;2022-10-18T09:54:27;19.10;;;8.75;;
6434;SDS011;3250;42.694;23.278;2022-10-18T09:57:09;23.65;;;8.27;;
6434;SDS011;3250;42.694;23.278;2022-10-18T09:59:47;19.98;;;8.80;;
6434;SDS011;3250;42.694;23.278;2022-10-18T10:02:21;17.45;;;9.00;;
6434;SDS011;3250;42.694;23.278;2022-10-18T10:04:48;16.25;;;8.93;;
6434;SDS011;3250;42.694;23.278;2022-10-18T10:07:18;17.92;;;9.13;;
6434;SDS011;3250;42.694;23.278;2022-10-18T10:09:47;19.17;;;8.70;;
6434;SDS011;3250;42.694;23.278;2022-10-18T10:12:36;12.98;;;7.85;;
6434;SDS011;3250;42.694;23.278;2022-10-18T10:15:22;12.75;;;7.65;;
6434;SDS011;3250;42.694;23.278;2022-10-18T10:20:33;17.08;;;8.65;;
6434;SDS011;3250;42.694;23.278;2022-10-18T10:26:23;14.77;;;7.50;;
6434;SDS011;3250;42.694;23.278;2022-10-18T10:28:52;15.07;;;7.20;;
6434;SDS011;3250;42.694;23.278;2022-10-18T10:31:20;12.82;;;6.15;;
6434;SDS011;3250;42.694;23.278;2022-10-18T10:36:27;10.63;;;6.60;;
6434;SDS011;3250;42.694;23.278;2022-10-18T10:41:35;11.05;;;6.03;;
6434;SDS011;3250;42.694;23.278;2022-10-18T10:44:02;17.60;;;6.18;;
6434;SDS011;3250;42.694;23.278;2022-10-18T10:46:36;12.75;;;6.20;;
6434;SDS011;3250;42.694;23.278;2022-10-18T10:49:02;14.60;;;5.57;;
6434;SDS011;3250;42.694;23.278;2022-10-18T10:51:33;12.88;;;4.43;;
6434;SDS011;3250;42.694;23.278;2022-10-18T10:54:17;7.72;;;4.90;;
6434;SDS011;3250;42.694;23.278;2022-10-18T10:56:51;12.43;;;5.85;;
6434;SDS011;3250;42.694;23.278;2022-10-18T10:59:22;17.20;;;5.68;;
6434;SDS011;3250;42.694;23.278;2022-10-18T11:01:58;13.60;;;5.60;;
6434;SDS011;3250;42.694;23.278;2022-10-18T11:04:35;11.55;;;5.53;;
6434;SDS011;3250;42.694;23.278;2022-10-18T11:14:51;9.55;;;4.47;;
6434;SDS011;3250;42.694;23.278;2022-10-18T11:20:04;8.48;;;4.45;;
6434;SDS011;3250;42.694;23.278;2022-10-18T11:22:42;9.20;;;3.80;;
6434;SDS011;3250;42.694;23.278;2022-10-18T11:25:17;8.63;;;3.85;;
6434;SDS011;3250;42.694;23.278;2022-10-18T11:30:39;12.70;;;3.47;;
6434;SDS011;3250;42.694;23.278;2022-10-18T11:44:03;3.33;;;2.05;;
6434;SDS011;3250;42.694;23.278;2022-10-18T11:52:19;4.43;;;2.20;;
6434;SDS011;3250;42.694;23.278;2022-10-18T12:03:20;3.25;;;1.90;;
6434;SDS011;3250;42.694;23.278;2022-10-18T12:05:51;3.83;;;1.70;;
6434;SDS011;3250;42.694;23.278;2022-10-18T12:11:07;3.05;;;1.83;;
6434;SDS011;3250;42.694;23.278;2022-10-18T12:13:49;3.80;;;1.65;;
6434;SDS011;3250;42.694;23.278;2022-10-18T12:16:18;3.63;;;2.00;;
6434;SDS011;3250;42.694;23.278;2022-10-18T12:18:47;1.75;;;1.60;;
6434;SDS011;3250;42.694;23.278;2022-10-18T12:21:25;2.70;;;1.75;;
6434;SDS011;3250;42.694;23.278;2022-10-18T12:23:54;2.10;;;1.58;;
6434;SDS011;3250;42.694;23.278;2022-10-18T12:26:24;3.65;;;1.52;;
6434;SDS011;3250;42.694;23.278;2022-10-18T12:31:51;2.00;;;1.75;;
6434;SDS011;3250;42.694;23.278;2022-10-18T12:36:59;2.28;;;1.65;;
6434;SDS011;3250;42.694;23.278;2022-10-18T12:42:18;2.65;;;1.40;;
6434;SDS011;3250;42.694;23.278;2022-10-18T12:44:47;1.63;;;1.33;;
6434;SDS011;3250;42.694;23.278;2022-10-18T12:47:20;1.40;;;1.27;;
6434;SDS011;3250;42.694;23.278;2022-10-18T12:49:55;2.75;;;1.48;;
6434;SDS011;3250;42.694;23.278;2022-10-18T12:52:24;1.80;;;1.38;;
6434;SDS011;3250;42.694;23.278;2022-10-18T13:25:04;2.58;;;1.48;;
6434;SDS011;3250;42.694;23.278;2022-10-18T13:28:00;1.60;;;1.50;;
6434;SDS011;3250;42.694;23.278;2022-10-18T13:30:43;1.52;;;1.42;;
6434;SDS011;3250;42.694;23.278;2022-10-18T13:38:56;3.78;;;1.88;;
6434;SDS011;3250;42.694;23.278;2022-10-18T13:41:09;1.42;;;1.27;;
6434;SDS011;3250;42.694;23.278;2022-10-18T13:48:59;3.30;;;1.40;;
6434;SDS011;3250;42.694;23.278;2022-10-18T14:00:31;4.13;;;2.00;;
6434;SDS011;3250;42.694;23.278;2022-10-18T14:06:03;1.75;;;1.05;;
6434;SDS011;3250;42.694;23.278;2022-10-18T14:08:34;24.60;;;3.17;;
6434;SDS011;3250;42.694;23.278;2022-10-18T14:19:40;2.90;;;1.40;;
6434;SDS011;3250;42.694;23.278;2022-10-18T14:22:24;1.33;;;1.23;;
6434;SDS011;3250;42.694;23.278;2022-10-18T14:24:55;4.43;;;1.33;;
6434;SDS011;3250;42.694;23.278;2022-10-18T14:27:30;23.10;;;2.05;;
6434;SDS011;3250;42.694;23.278;2022-10-18T14:30:13;3.30;;;1.25;;
6434;SDS011;3250;42.694;23.278;2022-10-18T14:32:48;1.92;;;1.40;;
6434;SDS011;3250;42.694;23.278;2022-10-18T14:37:55;2.55;;;1.83;;
6434;SDS011;3250;42.694;23.278;2022-10-18T14:40:37;2.00;;;1.70;;
6434;SDS011;3250;42.694;23.278;2022-10-18T14:45:37;3.50;;;1.80;;
6434;SDS011;3250;42.694;23.278;2022-10-18T14:50:45;8.15;;;2.83;;
6434;SDS011;3250;42.694;23.278;2022-10-18T14:53:15;6.20;;;2.25;;
6434;SDS011;3250;42.694;23.278;2022-10-18T14:55:55;5.28;;;2.63;;
6434;SDS011;3250;42.694;23.278;2022-10-18T14:58:24;4.15;;;2.00;;
6434;SDS011;3250;42.694;23.278;2022-10-18T15:00:51;4.30;;;1.90;;
6434;SDS011;3250;42.694;23.278;2022-10-18T15:03:18;4.85;;;2.38;;
6434;SDS011;3250;42.694;23.278;2022-10-18T15:05:50;4.05;;;2.00;;
6434;SDS011;3250;42.694;23.278;2022-10-18T15:08:20;2.80;;;1.65;;
6434;SDS011;3250;42.694;23.278;2022-10-18T15:10:48;5.95;;;2.05;;
6434;SDS011;3250;42.694;23.278;2022-10-18T15:13:14;4.50;;;2.08;;
6434;SDS011;3250;42.694;23.278;2022-10-18T15:15:41;19.10;;;5.93;;
6434;SDS011;3250;42.694;23.278;2022-10-18T15:18:14;15.07;;;3.05;;
6434;SDS011;3250;42.694;23.278;2022-10-18T15:21:05;15.45;;;4.30;;
6434;SDS011;3250;42.694;23.278;2022-10-18T15:23:49;11.63;;;3.72;;
6434;SDS011;3250;42.694;23.278;2022-10-18T15:26:33;15.73;;;4.43;;
6434;SDS011;3250;42.694;23.278;2022-10-18T15:28:59;33.08;;;4.53;;
6434;SDS011;3250;42.694;23.278;2022-10-18T15:31:28;13.32;;;4.70;;
6434;SDS011;3250;42.694;23.278;2022-10-18T15:36:33;17.45;;;4.35;;
6434;SDS011;3250;42.694;23.278;2022-10-18T15:39:06;8.18;;;2.53;;
6434;SDS011;3250;42.694;23.278;2022-10-18T15:41:39;8.55;;;2.67;;
6434;SDS011;3250;42.694;23.278;2022-10-18T15:44:14;18.00;;;4.18;;
6434;SDS011;3250;42.694;23.278;2022-10-18T15:46:42;15.45;;;4.15;;
6434;SDS011;3250;42.694;23.278;2022-10-18T15:54:57;13.60;;;3.95;;
6434;SDS011;3250;42.694;23.278;2022-10-18T15:57:23;5.57;;;2.40;;
6434;SDS011;3250;42.694;23.278;2022-10-18T16:00:14;11.75;;;2.92;;
6434;SDS011;3250;42.694;23.278;2022-10-18T16:02:42;4.43;;;2.95;;
6434;SDS011;3250;42.694;23.278;2022-10-18T16:05:10;4.55;;;2.53;;
6434;SDS011;3250;42.694;23.278;2022-10-18T16:07:40;5.28;;;2.63;;
6434;SDS011;3250;42.694;23.278;2022-10-18T16:10:15;10.70;;;3.28;;
6434;SDS011;3250;42.694;23.278;2022-10-18T16:12:40;9.45;;;3.75;;
6434;SDS011;3250;42.694;23.278;2022-10-18T16:15:06;6.80;;;2.95;;
6434;SDS011;3250;42.694;23.278;2022-10-18T16:17:32;5.32;;;2.80;;
6434;SDS011;3250;42.694;23.278;2022-10-18T16:19:57;9.82;;;3.65;;
6434;SDS011;3250;42.694;23.278;2022-10-18T16:25:18;8.35;;;3.53;;
6434;SDS011;3250;42.694;23.278;2022-10-18T16:27:45;6.47;;;3.20;;
6434;SDS011;3250;42.694;23.278;2022-10-18T16:30:14;9.88;;;3.17;;
6434;SDS011;3250;42.694;23.278;2022-10-18T16:32:44;10.32;;;3.13;;
6434;SDS011;3250;42.694;23.278;2022-10-18T16:35:10;8.27;;;2.70;;
6434;SDS011;3250;42.694;23.278;2022-10-18T16:37:37;14.25;;;4.55;;
6434;SDS011;3250;42.694;23.278;2022-10-18T16:42:48;18.75;;;8.60;;
6434;SDS011;3250;42.694;23.278;2022-10-18T16:45:14;28.33;;;10.70;;
6434;SDS011;3250;42.694;23.278;2022-10-18T16:47:40;22.85;;;10.18;;
6434;SDS011;3250;42.694;23.278;2022-10-18T16:50:05;34.50;;;11.55;;
6434;SDS011;3250;42.694;23.278;2022-10-18T16:52:32;34.45;;;11.73;;
6434;SDS011;3250;42.694;23.278;2022-10-18T16:54:58;30.90;;;13.30;;
6434;SDS011;3250;42.694;23.278;2022-10-18T16:57:23;36.00;;;14.17;;
6434;SDS011;3250;42.694;23.278;2022-10-18T16:59:49;28.70;;;12.13;;
6434;SDS011;3250;42.694;23.278;2022-10-18T17:02:14;40.07;;;13.10;;
6434;SDS011;3250;42.694;23.278;2022-10-18T17:04:40;44.37;;;11.73;;
6434;SDS011;3250;42.694;23.278;2022-10-18T17:07:06;32.00;;;12.00;;
6434;SDS011;3250;42.694;23.278;2022-10-18T17:09:31;34.17;;;12.17;;
6434;SDS011;3250;42.694;23.278;2022-10-18T17:11:58;32.87;;;11.57;;
6434;SDS011;3250;42.694;23.278;2022-10-18T17:14:24;51.07;;;13.40;;
6434;SDS011;3250;42.694;23.278;2022-10-18T17:16:49;32.67;;;11.47;;
6434;SDS011;3250;42.694;23.278;2022-10-18T17:19:15;33.27;;;11.70;;
6434;SDS011;3250;42.694;23.278;2022-10-18T17:21:40;29.87;;;12.20;;
6434;SDS011;3250;42.694;23.278;2022-10-18T17:24:06;32.97;;;13.50;;
6434;SDS011;3250;42.694;23.278;2022-10-18T17:26:31;42.40;;;15.67;;
6434;SDS011;3250;42.694;23.278;2022-10-18T17:28:59;49.57;;;18.63;;
6434;SDS011;3250;42.694;23.278;2022-10-18T17:31:27;48.07;;;22.63;;
6434;SDS011;3250;42.694;23.278;2022-10-18T17:33:53;51.90;;;21.70;;
6434;SDS011;3250;42.694;23.278;2022-10-18T17:36:19;57.60;;;23.73;;
6434;SDS011;3250;42.694;23.278;2022-10-18T17:38:45;76.07;;;26.90;;
6434;SDS011;3250;42.694;23.278;2022-10-18T17:41:14;55.30;;;26.53;;
6434;SDS011;3250;42.694;23.278;2022-10-18T17:43:40;76.00;;;28.93;;
6434;SDS011;3250;42.694;23.278;2022-10-18T17:46:05;75.03;;;29.73;;
6434;SDS011;3250;42.694;23.278;2022-10-18T17:48:32;69.73;;;30.17;;
6434;SDS011;3250;42.694;23.278;2022-10-18T17:50:58;84.83;;;39.17;;
6434;SDS011;3250;42.694;23.278;2022-10-18T17:53:23;99.67;;;41.97;;
6434;SDS011;3250;42.694;23.278;2022-10-18T17:55:58;95.30;;;43.50;;
6434;SDS011;3250;42.694;23.278;2022-10-18T17:58:25;98.63;;;44.30;;
6434;SDS011;3250;42.694;23.278;2022-10-18T18:00:51;86.93;;;41.27;;
6434;SDS011;3250;42.694;23.278;2022-10-18T18:03:16;96.73;;;43.07;;
6434;SDS011;3250;42.694;23.278;2022-10-18T18:05:42;82.40;;;37.37;;
6434;SDS011;3250;42.694;23.278;2022-10-18T18:08:07;92.13;;;40.67;;
6434;SDS011;3250;42.694;23.278;2022-10-18T18:10:33;93.77;;;39.90;;
6434;SDS011;3250;42.694;23.278;2022-10-18T18:13:01;70.13;;;29.13;;
6434;SDS011;3250;42.694;23.278;2022-10-18T18:15:27;85.47;;;33.67;;